createdAt,value
2018-07-22T00:01:14.103Z,21.70
2018-07-22T00:03:42.214Z,21.70
2018-07-22T00:06:11.043Z,21.70
2018-07-22T00:08:39.423Z,21.70
2018-07-22T00:11:07.698Z,21.70
2018-07-22T00:13:35.824Z,21.70
2018-07-22T00:16:04.303Z,21.70
2018-07-22T00:18:32.440Z,21.70
2018-07-22T00:21:00.612Z,21.70
2018-07-22T00:23:28.817Z,21.60
2018-07-22T00:28:25.514Z,21.60
2018-07-22T00:30:53.768Z,21.60
2018-07-22T00:33:22.144Z,21.60
2018-07-22T00:35:50.364Z,21.50
2018-07-22T00:38:19.046Z,21.50
2018-07-22T00:40:48.048Z,21.50
2018-07-22T00:43:23.142Z,21.50
2018-07-22T00:45:51.350Z,21.50
2018-07-22T00:48:19.550Z,21.50
2018-07-22T00:50:47.910Z,21.40
2018-07-22T00:53:16.102Z,21.50
2018-07-22T00:55:44.204Z,21.50
2018-07-22T01:00:40.402Z,21.40
2018-07-22T01:03:08.640Z,21.30
2018-07-22T01:05:36.822Z,21.30
2018-07-22T01:08:05.184Z,21.30
2018-07-22T01:10:33.386Z,21.30
2018-07-22T01:13:02.340Z,21.30
2018-07-22T01:15:30.504Z,21.30
2018-07-22T01:18:00.308Z,21.30
2018-07-22T01:20:28.821Z,21.30
2018-07-22T01:22:57.004Z,21.30
2018-07-22T01:25:25.916Z,21.30
2018-07-22T01:27:54.129Z,21.30
2018-07-22T01:30:22.324Z,21.20
2018-07-22T01:35:18.702Z,21.20
2018-07-22T01:37:46.968Z,21.20
2018-07-22T01:40:15.090Z,21.20
2018-07-22T01:42:43.219Z,21.20
2018-07-22T01:45:11.505Z,21.20
2018-07-22T01:47:39.829Z,21.10
2018-07-22T01:50:08.434Z,21.10
2018-07-22T01:55:06.203Z,21.10
2018-07-22T02:00:03.621Z,21.10
2018-07-22T02:02:32.467Z,21.00
2018-07-22T02:05:00.915Z,21.00
2018-07-22T02:07:29.793Z,21.00
2018-07-22T02:09:58.970Z,21.00
2018-07-22T02:12:27.183Z,21.00
2018-07-22T02:14:55.842Z,21.00
2018-07-22T02:17:24.018Z,21.00
2018-07-22T02:19:52.727Z,21.00
2018-07-22T02:22:21.008Z,21.00
2018-07-22T02:24:50.138Z,21.00
2018-07-22T02:27:18.321Z,21.00
2018-07-22T02:32:15.828Z,20.90
2018-07-22T02:34:44.048Z,20.90
2018-07-22T02:37:12.299Z,20.80
2018-07-22T02:39:41.696Z,20.90
2018-07-22T02:42:10.527Z,20.90
2018-07-22T02:44:39.592Z,20.80
2018-07-22T02:47:08.641Z,20.80
2018-07-22T02:52:05.806Z,20.80
2018-07-22T02:54:33.936Z,20.80
2018-07-22T02:57:02.191Z,20.70
2018-07-22T02:59:30.445Z,20.70
2018-07-22T03:01:58.717Z,20.70
2018-07-22T03:04:26.960Z,20.60
2018-07-22T03:06:55.997Z,20.70
2018-07-22T03:11:53.132Z,20.60
2018-07-22T03:14:21.392Z,20.60
2018-07-22T03:16:50.200Z,20.60
2018-07-22T03:19:18.885Z,20.60
2018-07-22T03:21:47.062Z,20.60
2018-07-22T03:24:16.003Z,20.60
2018-07-22T03:26:44.131Z,20.60
2018-07-22T03:29:13.340Z,20.60
2018-07-22T03:36:37.871Z,20.60
2018-07-22T03:41:35.652Z,20.60
2018-07-22T03:46:32.143Z,20.60
2018-07-22T03:49:00.338Z,20.60
2018-07-22T03:51:28.519Z,20.60
2018-07-22T03:53:57.159Z,20.60
2018-07-22T03:56:25.447Z,20.50
2018-07-22T03:58:54.452Z,20.50
2018-07-22T04:01:23.240Z,20.60
2018-07-22T04:03:51.454Z,20.60
2018-07-22T04:06:21.058Z,20.60
2018-07-22T04:08:50.942Z,20.70
2018-07-22T04:11:19.781Z,20.60
2018-07-22T04:13:48.064Z,20.60
2018-07-22T04:16:16.337Z,20.60
2018-07-22T04:21:20.353Z,20.60
2018-07-22T04:23:49.662Z,20.60
2018-07-22T04:26:19.417Z,20.60
2018-07-22T04:28:47.622Z,20.60
2018-07-22T04:31:16.188Z,20.70
2018-07-22T04:33:45.087Z,20.70
2018-07-22T04:36:13.366Z,20.70
2018-07-22T04:38:41.450Z,20.70
2018-07-22T04:41:09.816Z,20.70
2018-07-22T04:43:38.040Z,20.70
2018-07-22T04:46:06.379Z,20.70
2018-07-22T04:48:34.826Z,20.70
2018-07-22T04:51:04.029Z,20.80
2018-07-22T04:53:32.282Z,20.80
2018-07-22T04:56:00.527Z,20.90
2018-07-22T04:58:28.726Z,20.90
2018-07-22T05:03:25.232Z,21.00
2018-07-22T05:05:53.446Z,21.00
2018-07-22T05:08:22.092Z,21.10
2018-07-22T05:10:50.859Z,21.00
2018-07-22T05:13:19.686Z,21.10
2018-07-22T05:15:48.069Z,21.10
2018-07-22T05:18:16.319Z,21.10
2018-07-22T05:20:44.486Z,21.20
2018-07-22T05:23:12.683Z,21.20
2018-07-22T05:25:40.980Z,21.30
2018-07-22T05:28:09.188Z,21.40
2018-07-22T05:33:05.847Z,21.50
2018-07-22T05:35:34.629Z,21.60
2018-07-22T05:40:31.831Z,21.70
2018-07-22T05:43:00.147Z,21.80
2018-07-22T05:45:28.309Z,21.80
2018-07-22T05:47:56.531Z,21.80
2018-07-22T05:50:24.719Z,21.80
2018-07-22T05:52:53.079Z,21.90
2018-07-22T05:57:50.178Z,22.00
2018-07-22T06:00:18.743Z,21.90
2018-07-22T06:02:47.881Z,21.90
2018-07-22T06:05:16.734Z,22.00
2018-07-22T06:07:44.924Z,22.10
2018-07-22T06:10:13.637Z,22.20
2018-07-22T06:12:41.895Z,22.20
2018-07-22T06:15:10.197Z,22.40
2018-07-22T06:17:38.564Z,22.50
2018-07-22T06:20:08.038Z,22.40
2018-07-22T06:22:37.548Z,22.60
2018-07-22T06:25:06.804Z,22.70
2018-07-22T06:30:03.280Z,22.90
2018-07-22T06:32:31.527Z,23.00
2018-07-22T06:34:59.850Z,23.00
2018-07-22T06:37:28.037Z,22.90
2018-07-22T06:39:56.236Z,22.90
2018-07-22T06:42:24.788Z,23.00
2018-07-22T06:44:52.872Z,23.10
2018-07-22T06:47:21.050Z,23.10
2018-07-22T06:49:49.234Z,23.20
2018-07-22T06:52:17.432Z,23.10
2018-07-22T06:54:45.539Z,23.10
2018-07-22T06:57:13.814Z,23.00
2018-07-22T06:59:41.971Z,23.10
2018-07-22T07:02:11.530Z,23.20
2018-07-22T07:04:39.672Z,23.30
2018-07-22T07:07:08.185Z,23.30
2018-07-22T07:09:36.357Z,23.40
2018-07-22T07:12:04.612Z,23.50
2018-07-22T07:14:32.913Z,23.50
2018-07-22T07:17:01.121Z,23.60
2018-07-22T07:19:29.361Z,23.80
2018-07-22T07:21:57.620Z,23.90
2018-07-22T07:26:53.915Z,24.20
2018-07-22T07:29:22.066Z,24.20
2018-07-22T07:31:50.250Z,24.20
2018-07-22T07:34:18.468Z,24.40
2018-07-22T07:39:14.979Z,24.60
2018-07-22T07:41:44.092Z,24.80
2018-07-22T07:44:12.289Z,25.00
2018-07-22T07:49:08.824Z,25.30
2018-07-22T07:51:37.161Z,25.80
2018-07-22T07:54:05.500Z,26.00
2018-07-22T08:01:30.052Z,26.30
2018-07-22T08:03:58.336Z,26.30
2018-07-22T08:06:26.457Z,26.30
2018-07-22T08:08:54.672Z,26.20
2018-07-22T08:11:23.089Z,26.30
2018-07-22T08:13:51.232Z,26.50
2018-07-22T08:16:19.452Z,26.70
2018-07-22T08:18:47.710Z,26.50
2018-07-22T08:21:15.856Z,26.50
2018-07-22T08:23:43.956Z,26.60
2018-07-22T08:26:12.170Z,27.00
2018-07-22T08:31:56.501Z,27.00
2018-07-22T08:34:24.804Z,26.70
2018-07-22T08:36:52.932Z,26.60
2018-07-22T08:39:22.860Z,26.30
2018-07-22T08:41:51.833Z,25.90
2018-07-22T08:44:20.104Z,25.70
2018-07-22T08:46:48.812Z,25.20
2018-07-22T08:49:16.981Z,25.00
2018-07-22T08:51:45.650Z,25.10
2018-07-22T08:56:41.987Z,24.70
2018-07-22T09:01:38.882Z,24.40
2018-07-22T09:04:07.129Z,24.30
2018-07-22T09:09:06.979Z,24.20
2018-07-22T09:11:35.261Z,24.30
2018-07-22T09:14:03.821Z,24.10
2018-07-22T09:19:00.133Z,24.20
2018-07-22T09:21:28.332Z,24.10
2018-07-22T09:23:56.620Z,24.00
2018-07-22T09:28:52.845Z,24.30
2018-07-22T09:31:21.135Z,24.60
2018-07-22T09:33:49.396Z,24.60
2018-07-22T09:36:18.101Z,24.50
2018-07-22T09:38:46.190Z,24.30
2018-07-22T09:41:14.519Z,24.40
2018-07-22T09:43:42.713Z,24.60
2018-07-22T09:46:10.900Z,24.70
2018-07-22T09:48:39.240Z,24.70
2018-07-22T09:51:07.564Z,24.70
2018-07-22T09:53:36.822Z,24.60
2018-07-22T09:56:05.234Z,24.60
2018-07-22T09:58:33.681Z,24.60
2018-07-22T10:05:59.520Z,24.60
2018-07-22T10:08:28.812Z,25.00
2018-07-22T10:10:57.116Z,25.30
2018-07-22T10:13:25.621Z,25.40
2018-07-22T10:15:54.008Z,25.50
2018-07-22T10:18:22.286Z,25.70
2018-07-22T10:20:50.560Z,25.80
2018-07-22T10:23:25.641Z,25.90
2018-07-22T10:25:54.586Z,26.20
2018-07-22T10:28:22.829Z,26.20
2018-07-22T10:30:51.066Z,26.20
2018-07-22T10:33:20.196Z,26.30
2018-07-22T10:35:48.690Z,25.90
2018-07-22T10:38:18.244Z,25.60
2018-07-22T10:43:15.067Z,26.00
2018-07-22T10:45:43.530Z,26.10
2018-07-22T10:48:11.799Z,26.30
2018-07-22T10:50:40.097Z,26.10
2018-07-22T10:53:08.371Z,26.20
2018-07-22T10:55:36.620Z,26.30
2018-07-22T10:58:05.363Z,26.30
2018-07-22T11:00:34.855Z,26.40
2018-07-22T11:03:06.040Z,26.30
2018-07-22T11:05:34.361Z,26.50
2018-07-22T11:08:02.595Z,26.40
2018-07-22T11:10:30.921Z,26.40
2018-07-22T11:12:59.177Z,26.30
2018-07-22T11:15:28.009Z,26.30
2018-07-22T11:17:56.179Z,26.20
2018-07-22T11:20:24.420Z,26.30
2018-07-22T11:22:53.234Z,26.20
2018-07-22T11:25:21.451Z,26.20
2018-07-22T11:30:17.775Z,26.30
2018-07-22T11:32:46.633Z,26.40
2018-07-22T11:35:14.857Z,26.50
2018-07-22T11:37:43.315Z,26.70
2018-07-22T11:40:11.776Z,26.70
2018-07-22T11:42:40.393Z,27.00
2018-07-22T11:47:38.173Z,27.70
2018-07-22T11:50:06.501Z,27.80
2018-07-22T11:52:34.721Z,27.80
2018-07-22T11:55:04.125Z,27.60
2018-07-22T11:57:32.367Z,27.80
2018-07-22T12:00:00.733Z,27.70
2018-07-22T12:02:28.957Z,27.70
2018-07-22T12:04:57.185Z,28.10
2018-07-22T12:07:25.401Z,28.30
2018-07-22T12:09:53.677Z,28.30
2018-07-22T12:12:21.925Z,28.20
2018-07-22T12:14:51.041Z,28.40
2018-07-22T12:17:19.252Z,28.80
2018-07-22T12:22:16.415Z,28.90
2018-07-22T12:24:44.732Z,28.90
2018-07-22T12:27:13.033Z,29.10
2018-07-22T12:29:41.261Z,29.20
2018-07-22T12:34:37.685Z,29.10
2018-07-22T12:37:05.866Z,29.40
2018-07-22T12:39:34.345Z,29.70
2018-07-22T12:42:03.008Z,30.10
2018-07-22T12:44:31.279Z,30.50
2018-07-22T12:46:59.493Z,30.90
2018-07-22T12:49:27.657Z,30.90
2018-07-22T12:51:55.941Z,31.60
2018-07-22T12:54:24.284Z,32.10
2018-07-22T12:56:52.597Z,32.50
2018-07-22T12:59:21.056Z,32.80
2018-07-22T13:01:49.668Z,33.20
2018-07-22T13:06:46.293Z,33.70
2018-07-22T13:09:14.464Z,34.50
2018-07-22T13:11:42.674Z,35.00
2018-07-22T13:14:10.887Z,34.70
2018-07-22T13:16:39.408Z,34.20
2018-07-22T13:19:07.597Z,33.70
2018-07-22T13:21:35.951Z,33.50
2018-07-22T13:24:04.457Z,33.70
2018-07-22T13:26:33.949Z,33.50
2018-07-22T13:29:02.188Z,33.30
2018-07-22T13:31:30.639Z,33.00
2018-07-22T13:36:26.974Z,31.90
2018-07-22T13:38:55.213Z,31.70
2018-07-22T13:41:23.804Z,31.70
2018-07-22T13:43:52.082Z,31.90
2018-07-22T13:46:20.440Z,32.10
2018-07-22T13:48:49.355Z,32.10
2018-07-22T13:51:17.655Z,31.70
2018-07-22T13:53:45.893Z,31.40
2018-07-22T13:56:14.131Z,31.10
2018-07-22T14:01:10.394Z,30.60
2018-07-22T14:03:38.664Z,30.90
2018-07-22T14:06:06.880Z,30.90
2018-07-22T14:08:35.040Z,30.70
2018-07-22T14:11:03.422Z,30.70
2018-07-22T14:13:31.702Z,30.50
2018-07-22T14:15:59.974Z,30.50
2018-07-22T14:18:28.138Z,30.40
2018-07-22T14:20:56.414Z,29.80
2018-07-22T14:23:25.332Z,29.80
2018-07-22T14:25:53.602Z,30.00
2018-07-22T14:28:21.838Z,30.10
2018-07-22T14:33:19.550Z,29.80
2018-07-22T14:35:47.742Z,29.80
2018-07-22T14:38:15.971Z,29.90
2018-07-22T14:43:12.275Z,29.80
2018-07-22T14:45:40.794Z,29.90
2018-07-22T14:50:37.595Z,30.20
2018-07-22T14:53:07.279Z,30.50
2018-07-22T14:55:36.155Z,30.80
2018-07-22T14:58:04.730Z,30.80
2018-07-22T15:00:32.923Z,30.90
2018-07-22T15:03:01.140Z,30.70
2018-07-22T15:05:29.383Z,30.60
2018-07-22T15:12:54.266Z,30.30
2018-07-22T15:15:22.472Z,30.40
2018-07-22T15:17:50.720Z,30.30
2018-07-22T15:20:18.965Z,30.10
2018-07-22T15:22:47.282Z,29.90
2018-07-22T15:25:15.494Z,29.70
2018-07-22T15:27:43.890Z,29.70
2018-07-22T15:30:12.082Z,29.60
2018-07-22T15:32:40.331Z,29.50
2018-07-22T15:35:08.678Z,29.50
2018-07-22T15:37:36.816Z,29.30
2018-07-22T15:40:05.285Z,29.10
2018-07-22T15:42:33.583Z,28.90
2018-07-22T15:45:01.821Z,28.80
2018-07-22T15:47:30.063Z,28.90
2018-07-22T15:49:59.133Z,28.80
2018-07-22T15:52:27.980Z,28.80
2018-07-22T15:54:56.289Z,28.60
2018-07-22T15:57:24.532Z,28.40
2018-07-22T15:59:52.743Z,28.30
2018-07-22T16:02:20.895Z,28.10
2018-07-22T16:04:49.970Z,28.10
2018-07-22T16:09:48.750Z,27.90
2018-07-22T16:12:16.959Z,27.90
2018-07-22T16:14:45.270Z,27.70
2018-07-22T16:17:13.490Z,27.70
2018-07-22T16:22:09.846Z,27.80
2018-07-22T16:27:06.642Z,27.60
2018-07-22T16:29:34.966Z,27.70
2018-07-22T16:32:03.833Z,27.70
2018-07-22T16:34:32.189Z,27.70
2018-07-22T16:37:00.871Z,27.60
2018-07-22T16:39:30.045Z,27.60
2018-07-22T16:41:58.223Z,27.70
2018-07-22T16:44:27.034Z,27.60
2018-07-22T16:46:55.268Z,27.60
2018-07-22T16:49:23.528Z,27.60
2018-07-22T16:51:52.362Z,27.60
2018-07-22T16:54:20.614Z,27.60
2018-07-22T16:56:48.883Z,27.60
2018-07-22T16:59:17.160Z,27.40
2018-07-22T17:01:46.306Z,27.20
2018-07-22T17:04:14.532Z,27.10
2018-07-22T17:06:43.543Z,27.00
2018-07-22T17:11:40.730Z,26.70
2018-07-22T17:14:09.519Z,26.60
2018-07-22T17:16:39.246Z,26.40
2018-07-22T17:19:07.671Z,26.30
2018-07-22T17:21:36.607Z,26.20
2018-07-22T17:24:05.317Z,26.10
2018-07-22T17:26:34.037Z,26.00
2018-07-22T17:29:02.981Z,25.80
2018-07-22T17:31:31.221Z,25.50
2018-07-22T17:33:59.386Z,25.30
2018-07-22T17:36:27.721Z,25.10
2018-07-22T17:38:55.918Z,24.90
2018-07-22T17:41:24.178Z,24.80
2018-07-22T17:43:52.327Z,24.70
2018-07-22T17:46:20.543Z,24.50
2018-07-22T17:48:49.283Z,24.50
2018-07-22T17:51:17.410Z,24.40
2018-07-22T17:53:46.225Z,24.20
2018-07-22T17:56:15.597Z,24.20
2018-07-22T17:58:44.570Z,24.00
2018-07-22T18:01:12.764Z,23.90
2018-07-22T18:03:41.084Z,23.90
2018-07-22T18:08:38.006Z,23.60
2018-07-22T18:11:06.282Z,23.60
2018-07-22T18:13:34.486Z,23.50
2018-07-22T18:16:02.736Z,23.40
2018-07-22T18:18:30.901Z,23.40
2018-07-22T18:21:04.006Z,23.30
2018-07-22T18:23:32.501Z,23.20
2018-07-22T18:26:00.680Z,23.20
2018-07-22T18:28:28.971Z,23.10
2018-07-22T18:30:57.083Z,22.90
2018-07-22T18:33:25.254Z,23.00
2018-07-22T18:35:53.394Z,23.00
2018-07-22T18:40:51.084Z,23.10
2018-07-22T18:45:47.845Z,23.10
2018-07-22T18:48:16.790Z,23.10
2018-07-22T18:50:44.955Z,23.10
2018-07-22T18:53:13.378Z,23.10
2018-07-22T18:55:41.847Z,23.00
2018-07-22T18:58:10.265Z,23.00
2018-07-22T19:00:38.681Z,23.00
2018-07-22T19:05:35.150Z,22.80
2018-07-22T19:08:04.470Z,22.70
2018-07-22T19:10:32.956Z,22.60
2018-07-22T19:13:01.248Z,22.40
2018-07-22T19:20:25.911Z,22.30
2018-07-22T19:22:54.484Z,22.20
2018-07-22T19:25:22.626Z,22.10
2018-07-22T19:30:18.536Z,21.90
2018-07-22T19:32:46.801Z,21.80
2018-07-22T19:35:14.993Z,21.80
2018-07-22T19:37:43.150Z,21.80
2018-07-22T19:40:11.539Z,21.70
2018-07-22T19:42:39.723Z,21.70
2018-07-22T19:45:07.999Z,21.70
2018-07-22T19:47:36.211Z,21.60
2018-07-22T19:50:04.501Z,21.60
2018-07-22T19:52:32.614Z,21.60
2018-07-22T19:55:00.973Z,21.50
2018-07-22T19:57:29.356Z,21.50
2018-07-22T19:59:57.542Z,21.40
2018-07-22T20:02:25.700Z,21.40
2018-07-22T20:04:53.984Z,21.40
2018-07-22T20:07:22.096Z,21.30
2018-07-22T20:09:55.494Z,21.30
2018-07-22T20:12:24.055Z,21.30
2018-07-22T20:14:52.377Z,21.30
2018-07-22T20:17:25.570Z,21.20
2018-07-22T20:22:22.595Z,21.30
2018-07-22T20:24:51.825Z,21.30
2018-07-22T20:29:48.310Z,21.30
2018-07-22T20:32:17.332Z,21.30
2018-07-22T20:34:45.553Z,21.30
2018-07-22T20:37:14.044Z,21.30
2018-07-22T20:39:42.169Z,21.30
2018-07-22T20:42:10.355Z,21.30
2018-07-22T20:44:38.521Z,21.30
2018-07-22T20:47:06.770Z,21.30
2018-07-22T20:49:35.614Z,21.40
2018-07-22T20:54:32.652Z,21.40
2018-07-22T20:57:00.824Z,21.40
2018-07-22T20:59:29.100Z,21.40
2018-07-22T21:01:57.321Z,21.40
2018-07-22T21:04:25.687Z,21.30
2018-07-22T21:09:22.066Z,21.40
2018-07-22T21:13:07.132Z,21.40
2018-07-22T21:18:03.398Z,21.40
2018-07-22T21:20:31.632Z,21.40
2018-07-22T21:25:28.518Z,21.40
2018-07-22T21:32:52.994Z,21.40
2018-07-22T21:35:21.312Z,21.30
2018-07-22T21:37:49.486Z,21.30
2018-07-22T21:40:18.098Z,21.30
2018-07-22T21:42:46.292Z,21.30
2018-07-22T21:45:14.547Z,21.30
2018-07-22T21:47:43.368Z,21.30
2018-07-22T21:50:12.324Z,21.30
2018-07-22T21:52:40.684Z,21.30
2018-07-22T21:55:08.833Z,21.30
2018-07-22T21:57:37.392Z,21.20
2018-07-22T22:00:31.959Z,21.20
2018-07-22T22:03:01.671Z,21.30
2018-07-22T22:05:30.220Z,21.20
2018-07-22T22:07:58.834Z,21.20
2018-07-22T22:10:27.301Z,21.20
2018-07-22T22:15:28.267Z,21.20
2018-07-22T22:17:57.807Z,21.10
2018-07-22T22:20:27.961Z,21.10
2018-07-22T22:22:56.341Z,21.10
2018-07-22T22:25:24.665Z,21.10
2018-07-22T22:27:53.240Z,21.10
2018-07-22T22:30:22.778Z,21.10
2018-07-22T22:32:52.125Z,21.10
2018-07-22T22:37:52.804Z,21.10
2018-07-22T22:40:21.047Z,21.10
2018-07-22T22:45:17.275Z,21.10
2018-07-22T22:47:46.811Z,21.00
2018-07-22T22:50:15.000Z,21.00
2018-07-22T22:52:43.921Z,21.00
2018-07-22T22:55:12.893Z,21.00
2018-07-22T22:57:57.300Z,21.00
2018-07-22T23:00:26.453Z,21.00
2018-07-22T23:02:54.637Z,21.00
2018-07-22T23:05:22.941Z,21.00
2018-07-22T23:07:51.964Z,20.90
2018-07-22T23:15:16.717Z,20.80
2018-07-22T23:17:45.677Z,20.80
2018-07-22T23:20:14.040Z,20.70
2018-07-22T23:22:42.909Z,20.60
2018-07-22T23:25:11.088Z,20.60
2018-07-22T23:27:40.332Z,20.60
2018-07-22T23:32:36.625Z,20.40
2018-07-22T23:35:04.832Z,20.30
2018-07-22T23:37:32.990Z,20.30
2018-07-22T23:40:01.155Z,20.30
2018-07-22T23:42:29.271Z,20.20
2018-07-22T23:47:25.458Z,20.20
2018-07-22T23:49:53.572Z,20.10
2018-07-22T23:52:21.993Z,20.10
2018-07-22T23:54:52.364Z,20.10
2018-07-22T23:57:20.988Z,20.00
